createdAt,value
2023-04-27T00:04:07.856Z,100253.66
2023-04-27T00:11:26.907Z,100247.63
2023-04-27T00:18:45.465Z,100246.75
2023-04-27T00:26:05.968Z,100251.03
2023-04-27T00:33:24.363Z,100251.50
2023-04-27T00:40:43.025Z,100255.06
2023-04-27T00:48:03.136Z,100254.34
2023-04-27T00:55:21.936Z,100250.50
2023-04-27T01:02:41.717Z,100250.81
2023-04-27T01:10:02.363Z,100255.91
2023-04-27T01:17:21.064Z,100258.22
2023-04-27T01:24:41.610Z,100265.69
2023-04-27T01:32:00.522Z,100263.22
2023-04-27T01:39:19.468Z,100261.56
2023-04-27T01:46:41.858Z,100263.94
2023-04-27T01:54:00.817Z,100270.06
2023-04-27T02:01:19.681Z,100268.81
2023-04-27T02:08:39.643Z,100269.53
2023-04-27T02:16:02.373Z,100275.88
2023-04-27T02:23:21.106Z,100282.00
2023-04-27T02:30:41.168Z,100281.91
2023-04-27T02:38:00.062Z,100277.97
2023-04-27T02:45:19.600Z,100288.72
2023-04-27T02:52:39.995Z,100284.28
2023-04-27T02:59:58.896Z,100280.91
2023-04-27T03:07:18.215Z,100283.19
2023-04-27T03:14:38.612Z,100288.16
2023-04-27T03:22:00.557Z,100291.75
2023-04-27T03:29:19.245Z,100289.56
2023-04-27T03:36:41.622Z,100299.03
2023-04-27T03:44:02.525Z,100312.16
2023-04-27T03:51:21.461Z,100314.53
2023-04-27T03:58:41.356Z,100316.75
2023-04-27T04:06:11.232Z,100328.16
2023-04-27T04:13:30.901Z,100322.25
2023-04-27T04:20:51.745Z,100336.69
2023-04-27T04:28:10.245Z,100343.94
2023-04-27T04:35:30.559Z,100345.34
2023-04-27T04:42:51.081Z,100364.47
2023-04-27T04:50:10.852Z,100365.97
2023-04-27T04:57:29.490Z,100377.44
2023-04-27T05:04:49.999Z,100375.44
2023-04-27T05:12:09.082Z,100380.75
2023-04-27T05:19:27.460Z,100377.38
2023-04-27T05:26:47.412Z,100383.41
2023-04-27T05:34:06.123Z,100390.91
2023-04-27T05:41:25.266Z,100396.97
2023-04-27T05:48:46.843Z,100397.31
2023-04-27T05:56:06.978Z,100410.25
2023-04-27T06:03:25.998Z,100419.22
2023-04-27T06:10:46.065Z,100407.16
2023-04-27T06:18:04.725Z,100415.50
2023-04-27T06:25:26.653Z,100421.69
2023-04-27T06:32:47.305Z,100424.50
2023-04-27T06:40:07.136Z,100427.44
2023-04-27T06:47:25.916Z,100413.66
2023-04-27T06:54:45.823Z,100402.84
2023-04-27T07:02:04.520Z,100407.41
2023-04-27T07:09:27.513Z,100402.34
2023-04-27T07:16:47.913Z,100408.06
2023-04-27T07:24:07.066Z,100405.28
2023-04-27T07:31:25.575Z,100409.59
2023-04-27T07:38:45.851Z,100412.06
2023-04-27T07:46:04.643Z,100398.56
2023-04-27T07:53:23.290Z,100412.41
2023-04-27T08:00:42.984Z,100423.44
2023-04-27T08:08:01.943Z,100415.03
2023-04-27T08:15:20.715Z,100419.88
2023-04-27T08:22:40.671Z,100424.09
2023-04-27T08:29:59.097Z,100423.66
2023-04-27T08:37:18.716Z,100416.81
2023-04-27T08:44:41.295Z,100423.63
2023-04-27T08:51:59.706Z,100424.53
2023-04-27T08:59:18.191Z,100423.75
2023-04-27T09:06:37.917Z,100430.00
2023-04-27T09:13:56.735Z,100417.91
2023-04-27T09:21:24.040Z,100421.66
2023-04-27T09:28:49.921Z,100414.22
2023-04-27T09:36:08.877Z,100401.53
2023-04-27T09:43:28.867Z,100418.06
2023-04-27T09:50:50.487Z,100419.19
2023-04-27T09:58:19.996Z,100411.94
2023-04-27T10:06:05.307Z,100410.78
2023-04-27T10:13:25.179Z,100413.66
2023-04-27T10:20:44.044Z,100407.56
2023-04-27T10:28:04.652Z,100411.09
2023-04-27T10:35:23.375Z,100403.75
2023-04-27T10:42:42.242Z,100402.47
2023-04-27T10:50:02.203Z,100403.03
2023-04-27T10:57:20.480Z,100404.31
2023-04-27T11:04:40.292Z,100409.00
2023-04-27T11:12:01.148Z,100417.34
2023-04-27T11:19:19.479Z,100416.72
2023-04-27T11:26:38.000Z,100409.38
2023-04-27T11:33:58.032Z,100423.81
2023-04-27T11:41:16.575Z,100438.00
2023-04-27T11:48:37.215Z,100432.75
2023-04-27T11:55:57.935Z,100435.34
2023-04-27T12:03:17.426Z,100446.34
2023-04-27T12:10:36.776Z,100428.34
2023-04-27T12:17:56.996Z,100422.69
2023-04-27T12:25:15.407Z,100417.06
2023-04-27T12:32:33.851Z,100427.31
2023-04-27T12:39:53.677Z,100423.19
2023-04-27T12:47:20.097Z,100447.75
2023-04-27T12:54:46.945Z,100431.47
2023-04-27T13:02:07.843Z,100435.78
2023-04-27T13:09:26.508Z,100420.06
2023-04-27T13:16:45.254Z,100418.34
2023-04-27T13:24:05.706Z,100422.16
2023-04-27T13:31:24.410Z,100412.78
2023-04-27T13:38:43.022Z,100429.31
2023-04-27T13:46:03.021Z,100422.19
2023-04-27T13:53:21.916Z,100444.38
2023-04-27T14:00:40.619Z,100453.97
2023-04-27T14:08:00.513Z,100448.94
2023-04-27T14:15:18.802Z,100451.25
2023-04-27T14:22:37.582Z,100457.03
2023-04-27T14:29:57.577Z,100435.94
2023-04-27T14:37:15.898Z,100435.63
2023-04-27T14:44:36.480Z,100447.47
2023-04-27T14:51:57.420Z,100437.09
2023-04-27T14:59:16.340Z,100443.59
2023-04-27T15:06:35.242Z,100444.97
2023-04-27T15:13:56.476Z,100439.84
2023-04-27T15:21:15.496Z,100443.28
2023-04-27T15:28:33.863Z,100438.19
2023-04-27T15:35:54.117Z,100436.69
2023-04-27T15:43:12.962Z,100447.19
2023-04-27T15:50:31.898Z,100436.09
2023-04-27T15:57:53.349Z,100437.81
2023-04-27T16:05:12.318Z,100443.91
2023-04-27T16:12:30.923Z,100433.56
2023-04-27T16:19:51.106Z,100439.06
2023-04-27T16:27:09.654Z,100429.53
2023-04-27T16:34:29.396Z,100423.03
2023-04-27T16:41:49.715Z,100435.50
2023-04-27T16:49:09.012Z,100431.59
2023-04-27T16:56:29.421Z,100443.06
2023-04-27T17:03:50.717Z,100447.78
2023-04-27T17:11:09.930Z,100450.06
2023-04-27T17:18:30.503Z,100449.53
2023-04-27T17:25:50.582Z,100457.25
2023-04-27T17:33:10.263Z,100448.38
2023-04-27T17:40:28.714Z,100447.47
2023-04-27T17:47:48.888Z,100438.69
2023-04-27T17:55:19.259Z,100432.84
2023-04-27T18:02:40.767Z,100442.56
2023-04-27T18:10:00.859Z,100455.28
2023-04-27T18:17:24.070Z,100459.69
2023-04-27T18:24:42.978Z,100467.34
2023-04-27T18:32:10.465Z,100468.56
2023-04-27T18:39:35.883Z,100495.28
2023-04-27T18:47:14.529Z,100493.19
2023-04-27T18:54:45.489Z,100499.94
2023-04-27T19:02:04.198Z,100500.00
2023-04-27T19:09:23.020Z,100509.13
2023-04-27T19:16:46.388Z,100503.06
2023-04-27T19:24:09.937Z,100502.81
2023-04-27T19:31:33.263Z,100517.47
2023-04-27T19:38:56.527Z,100513.69
2023-04-27T19:46:17.757Z,100511.59
2023-04-27T19:54:11.440Z,100501.38
2023-04-27T20:01:37.757Z,100514.13
2023-04-27T20:09:34.300Z,100521.50
2023-04-27T20:18:00.683Z,100519.13
2023-04-27T20:25:26.029Z,100511.59
2023-04-27T20:32:44.585Z,100514.72
2023-04-27T20:40:05.064Z,100520.44
2023-04-27T20:47:25.321Z,100520.56
2023-04-27T20:54:43.925Z,100523.44
2023-04-27T21:02:02.585Z,100518.38
2023-04-27T21:09:22.585Z,100521.03
2023-04-27T21:16:41.513Z,100508.94
2023-04-27T21:24:08.098Z,100513.59
2023-04-27T21:31:39.449Z,100514.34
2023-04-27T21:39:03.175Z,100510.91
2023-04-27T21:46:26.226Z,100515.03
2023-04-27T21:53:47.699Z,100517.78
2023-04-27T22:02:14.995Z,100518.47
2023-04-27T22:38:13.782Z,100513.66
2023-04-27T22:45:48.689Z,100515.28
2023-04-27T22:53:35.338Z,100518.72
2023-04-27T23:01:35.527Z,100510.06
2023-04-27T23:09:04.198Z,100500.44
2023-04-27T23:16:27.233Z,100505.66
2023-04-27T23:23:49.266Z,100490.34
2023-04-27T23:31:10.280Z,100501.63
2023-04-27T23:38:30.411Z,100504.47
2023-04-27T23:46:00.245Z,100497.72
2023-04-27T23:53:24.584Z,100500.56
